Kalamazoo, MI (49007)

1:26 PM EST on November 27, 2014 (GMT -0500)
Westwood | Change Station
CLOSE
Current Station
Personal Weather Station
Location: Kalamazoo, MI
Elevation: 955 ft
Nearby Weather Stations
Active Advisory: Lake Effect Snow Advisory

Elev 955 ft 42.30 °N, 85.62 °W | Updated 7 seconds ago

Snow
Snow
31.6 °F
Feels Like 32 °F
N
1.1
Wind Variable Wind from ENE
Gusts 2.0 mph

Today
High -- | Low -- °F
--% Chance of Precip.
Yesterday
High -- | Low -- °F
Precip. -- in
7:47 AM 5:12 PM
Waxing Crescent, 31% visible
Pressure 30.22 in
Visibility 2.0 miles
Clouds Scattered Clouds 1200 ft
Mostly Cloudy 2600 ft
Overcast 4600 ft
Windchill 32 °F
Dew Point 25 °F
Humidity 77%
Rainfall 0.00 in
Snow Depth Not available.
UV 1 out of 12
Pollen .10 out of 12
Air Quality Not available.
Flu Activity Not available.
METAR KAZO 271753Z 30011G18KT 2SM -SN BR SCT012 BKN026 OVC046 00/M02 A3018 RMK AO2 SLP232 P0001 60001 T00001022 10000 21028 58006

More Conditions Fewer Conditions

Pressure 30.22 in
Visibility 2.0 miles
Clouds Scattered Clouds 1200 ft
Mostly Cloudy 2600 ft
Overcast 4600 ft
Windchill 32 °F
Dew Point 25 °F
Humidity 77%
Rainfall 0.00 in
Snow Depth Not available.
UV 1 out of 12
Pollen .10 out of 12
Air Quality Not available.
Flu Activity Not available.
METAR KAZO 271753Z 30011G18KT 2SM -SN BR SCT012 BKN026 OVC046 00/M02 A3018 RMK AO2 SLP232 P0001 60001 T00001022 10000 21028 58006

More Conditions Fewer Conditions

10-Day Weather Forecast

Almanac

Astronomy

Nov. 27, 2014 Rise Set
Actual Time
Civil Twilight
Nautical Twilight
Astronomical Twilight
Moon
Length of Visible Light
Length of Day
Tomorrow will be .
, % of the Moon is Illuminated

Today's Extremes

State Highs State Lows

Community

WunderPhotos

Upload Photos

1,774,079 photos uploaded!

WunderBlogs® & News

Nearby

Air Quality

  Air Quality AQ Index Pollutant
Not available.

Snow Depth

Station Depth Elevation

Earthquake Activity

City Distance Mag. Time & Date
Minimum magnitude displayed is 2.5.

Coastal Water Temperatures

Place Temperature

Nearby Weather Stations